Time;durP1;ratioP1;P1;durP2;ratioP2;P2;SDS_P1;SDS_P2;PMS_P1;PMS_P2;Temp;Humidity;BMP_temperature;BMP_pressure;BME280_temperature;BME280_humidity;BME280_pressure;Samples;Min_cycle;Max_cycle;Signal;HPM_P1;HPM_P2
2023/06/25 00:01:01;;;;;;;8.03;2.90;;;15.70;99.90;;;;;;5050846;28;20437;-77
2023/06/25 00:03:27;;;;;;;6.30;3.50;;;15.60;99.90;;;;;;5055847;28;20268;-77
2023/06/25 00:05:52;;;;;;;6.93;3.40;;;15.60;99.90;;;;;;5056091;28;20595;-77
2023/06/25 00:08:18;;;;;;;8.33;3.93;;;15.60;99.90;;;;;;5065320;28;20177;-77
2023/06/25 00:10:44;;;;;;;8.03;3.77;;;15.60;99.90;;;;;;5051816;28;20194;-77
2023/06/25 00:13:09;;;;;;;10.70;3.53;;;15.60;99.90;;;;;;5051696;28;20280;-77
2023/06/25 00:15:35;;;;;;;8.63;3.80;;;15.60;99.90;;;;;;5041651;28;20631;-77
2023/06/25 00:18:00;;;;;;;4.93;2.97;;;15.50;99.90;;;;;;5052428;28;20705;-77
2023/06/25 00:20:26;;;;;;;5.97;2.83;;;15.40;99.90;;;;;;5045263;28;20189;-77
2023/06/25 00:22:52;;;;;;;5.60;3.27;;;15.40;99.90;;;;;;5057385;28;20197;-77
2023/06/25 00:25:18;;;;;;;9.30;3.60;;;15.40;99.90;;;;;;5049942;28;20734;-77
2023/06/25 00:27:47;;;;;;;8.30;3.60;;;15.30;99.90;;;;;;5048202;28;20968;-77
2023/06/25 00:30:14;;;;;;;4.87;3.00;;;15.30;99.90;;;;;;5054592;28;20205;-77
2023/06/25 00:32:41;;;;;;;7.20;2.83;;;15.30;99.90;;;;;;5054467;28;20432;-77
2023/06/25 00:35:08;;;;;;;7.30;2.40;;;15.20;99.90;;;;;;5055508;28;20416;-77
2023/06/25 00:37:36;;;;;;;8.30;4.40;;;15.20;99.90;;;;;;5050635;28;20418;-77
2023/06/25 00:40:03;;;;;;;4.13;2.47;;;15.20;99.90;;;;;;5051619;28;20420;-77
2023/06/25 00:42:42;;;;;;;7.30;2.87;;;15.10;99.90;;;;;;5050663;28;20454;-77
2023/06/25 00:45:12;;;;;;;4.83;2.90;;;15.10;99.90;;;;;;5051677;28;20788;-77
2023/06/25 00:47:41;;;;;;;5.97;3.07;;;15.10;99.90;;;;;;5042553;28;20432;-77
2023/06/25 00:50:11;;;;;;;5.80;2.97;;;15.10;99.90;;;;;;5061384;28;20428;-77
2023/06/25 00:52:37;;;;;;;7.97;3.30;;;15.00;99.90;;;;;;5054374;28;20806;-77
2023/06/25 00:55:03;;;;;;;5.30;2.43;;;15.00;99.90;;;;;;5055416;28;20594;-77
2023/06/25 00:57:29;;;;;;;6.23;2.53;;;15.00;99.90;;;;;;5059093;28;21210;-77
2023/06/25 00:59:56;;;;;;;9.70;2.73;;;14.90;99.90;;;;;;5064378;28;20209;-77
2023/06/25 01:03:12;;;;;;;9.20;3.00;;;14.90;99.90;;;;;;5050254;28;20420;-77
2023/06/25 01:05:45;;;;;;;5.13;2.87;;;14.80;99.90;;;;;;5039299;28;20479;-77
2023/06/25 01:08:11;;;;;;;6.37;3.07;;;14.80;99.90;;;;;;5050789;28;20448;-77
2023/06/25 01:10:38;;;;;;;7.77;2.37;;;14.80;99.90;;;;;;5062971;28;20930;-77
2023/06/25 01:13:05;;;;;;;4.70;2.80;;;14.80;99.90;;;;;;5050655;28;20573;-77
2023/06/25 01:15:30;;;;;;;4.93;2.30;;;14.70;99.90;;;;;;5050470;28;20482;-77
2023/06/25 01:17:57;;;;;;;9.27;3.30;;;14.70;99.90;;;;;;5050976;28;20821;-77
2023/06/25 01:20:26;;;;;;;3.87;2.10;;;14.70;99.90;;;;;;5024710;28;20590;-77
2023/06/25 01:22:55;;;;;;;3.67;1.90;;;14.70;99.90;;;;;;5050547;28;20511;-77
2023/06/25 01:25:20;;;;;;;5.00;2.80;;;14.70;99.90;;;;;;5042050;28;20479;-77
2023/06/25 01:27:47;;;;;;;4.17;2.20;;;14.70;99.90;;;;;;5056561;28;20455;-77
2023/06/25 01:30:15;;;;;;;4.47;2.50;;;14.60;99.90;;;;;;5053035;28;20230;-77
2023/06/25 01:32:41;;;;;;;5.00;2.10;;;14.60;99.90;;;;;;5052589;28;20436;-78
2023/06/25 01:35:11;;;;;;;5.93;2.57;;;14.50;99.90;;;;;;5053236;28;20444;-77
2023/06/25 01:37:36;;;;;;;6.80;2.90;;;14.50;99.90;;;;;;5050637;28;20431;-77
2023/06/25 01:40:02;;;;;;;5.20;2.23;;;14.50;99.90;;;;;;5048567;28;20459;-77
2023/06/25 01:42:28;;;;;;;5.70;2.00;;;14.40;99.90;;;;;;5050372;28;20182;-77
2023/06/25 01:44:53;;;;;;;3.90;2.10;;;14.40;99.90;;;;;;5049879;28;20553;-77
2023/06/25 01:47:19;;;;;;;3.90;2.40;;;14.40;99.90;;;;;;5050241;28;20182;-77
2023/06/25 01:49:45;;;;;;;9.17;3.70;;;14.30;99.90;;;;;;5049539;28;20254;-77
2023/06/25 01:52:10;;;;;;;8.80;4.00;;;14.30;99.90;;;;;;5054279;28;20185;-77
2023/06/25 01:54:36;;;;;;;3.57;2.17;;;14.30;99.90;;;;;;5051066;28;20197;-77
2023/06/25 01:57:02;;;;;;;4.80;2.20;;;14.30;99.90;;;;;;5060970;28;20264;-78
2023/06/25 01:59:28;;;;;;;4.20;1.93;;;14.30;99.90;;;;;;5050924;28;20508;-76
2023/06/25 02:01:54;;;;;;;5.97;3.03;;;14.20;99.90;;;;;;5048701;28;20451;-78
2023/06/25 02:04:20;;;;;;;3.30;1.80;;;14.20;99.90;;;;;;5050753;28;20647;-77
2023/06/25 02:06:46;;;;;;;3.37;2.23;;;14.20;99.90;;;;;;5050262;28;20189;-77
2023/06/25 02:09:13;;;;;;;3.37;2.27;;;14.10;99.90;;;;;;5050474;28;20316;-78
2023/06/25 02:11:39;;;;;;;7.77;3.03;;;14.20;99.90;;;;;;5049992;28;20423;-77
2023/06/25 02:14:05;;;;;;;4.30;2.50;;;14.10;99.90;;;;;;5050481;28;20527;-77
2023/06/25 02:16:31;;;;;;;6.63;2.67;;;14.10;99.90;;;;;;5047707;28;20599;-77
2023/06/25 02:18:56;;;;;;;4.10;2.73;;;14.10;99.90;;;;;;5050533;28;20428;-78
2023/06/25 02:21:22;;;;;;;3.90;2.37;;;14.00;99.90;;;;;;5050463;28;20197;-78
2023/06/25 02:23:47;;;;;;;4.70;2.90;;;14.00;99.90;;;;;;5053190;28;20214;-77
2023/06/25 02:26:13;;;;;;;5.77;2.33;;;14.00;99.90;;;;;;5053659;28;20188;-77
2023/06/25 02:28:39;;;;;;;5.37;2.50;;;13.90;99.90;;;;;;5053798;28;20178;-77
2023/06/25 02:31:04;;;;;;;5.20;2.43;;;13.90;99.90;;;;;;5052124;28;20189;-77
2023/06/25 02:33:30;;;;;;;4.37;2.53;;;13.90;99.90;;;;;;5060613;28;20173;-77
2023/06/25 02:35:55;;;;;;;5.23;2.57;;;13.90;99.90;;;;;;5053754;28;20576;-77
2023/06/25 02:38:21;;;;;;;4.73;2.10;;;13.90;99.90;;;;;;5062796;28;20186;-78
2023/06/25 02:40:47;;;;;;;7.67;3.57;;;13.90;99.90;;;;;;5059949;28;21066;-77
2023/06/25 02:43:12;;;;;;;5.10;2.93;;;13.80;99.90;;;;;;5067693;28;20182;-77
2023/06/25 02:45:38;;;;;;;4.03;2.33;;;13.80;99.90;;;;;;5061823;28;20209;-77
2023/06/25 02:48:04;;;;;;;4.73;2.57;;;13.80;99.90;;;;;;5051000;28;20360;-77
2023/06/25 02:50:30;;;;;;;6.40;3.33;;;13.80;99.90;;;;;;5051235;28;20178;-77
2023/06/25 02:52:56;;;;;;;3.50;2.10;;;13.70;99.90;;;;;;5052445;28;20424;-77
2023/06/25 02:55:21;;;;;;;3.23;2.00;;;13.70;99.90;;;;;;5053245;28;20197;-77
2023/06/25 02:57:47;;;;;;;13.53;2.60;;;13.70;99.90;;;;;;5053583;28;20191;-78
2023/06/25 03:00:13;;;;;;;4.63;2.57;;;13.70;99.90;;;;;;5053299;28;20536;-77
2023/06/25 03:02:38;;;;;;;3.90;2.30;;;13.70;99.90;;;;;;5051066;28;20241;-77
2023/06/25 03:05:04;;;;;;;6.33;2.30;;;13.70;99.90;;;;;;5051975;28;21018;-77
2023/06/25 03:07:30;;;;;;;4.30;2.57;;;13.70;99.90;;;;;;5052740;28;20189;-77
2023/06/25 03:09:55;;;;;;;3.60;2.00;;;13.70;99.90;;;;;;5066703;28;20244;-77
2023/06/25 03:12:21;;;;;;;3.43;1.90;;;13.60;99.90;;;;;;5054783;28;20247;-77
2023/06/25 03:14:46;;;;;;;12.90;3.00;;;13.60;99.90;;;;;;5054283;28;20315;-77
2023/06/25 03:17:12;;;;;;;4.70;2.90;;;13.60;99.90;;;;;;5052133;28;20552;-77
2023/06/25 03:19:38;;;;;;;4.23;2.53;;;13.60;99.90;;;;;;5049217;28;20275;-77
2023/06/25 03:22:04;;;;;;;4.80;2.70;;;13.60;99.90;;;;;;5062018;28;20535;-77
2023/06/25 03:24:29;;;;;;;3.90;2.03;;;13.60;99.90;;;;;;5058367;28;20236;-77
2023/06/25 03:26:55;;;;;;;6.63;2.73;;;13.50;99.90;;;;;;5050451;28;20189;-77
2023/06/25 03:29:20;;;;;;;3.33;2.70;;;13.50;99.90;;;;;;5065823;28;20736;-77
2023/06/25 03:31:46;;;;;;;6.37;3.53;;;13.50;99.90;;;;;;5052589;28;20174;-77
2023/06/25 03:34:11;;;;;;;4.20;2.30;;;13.60;99.90;;;;;;5052039;28;20193;-77
2023/06/25 03:36:37;;;;;;;5.63;2.87;;;13.50;99.90;;;;;;5054089;28;20832;-77
2023/06/25 03:39:03;;;;;;;6.93;2.30;;;13.50;99.90;;;;;;5063986;28;20189;-77
2023/06/25 03:41:29;;;;;;;3.30;2.10;;;13.50;99.90;;;;;;5056387;28;20211;-77
2023/06/25 03:43:55;;;;;;;5.70;3.00;;;13.50;99.90;;;;;;5060029;28;20197;-77
2023/06/25 03:46:20;;;;;;;5.47;1.93;;;13.40;99.90;;;;;;5057588;28;20423;-77
2023/06/25 03:48:46;;;;;;;5.57;2.13;;;13.50;99.90;;;;;;5052907;28;20634;-77
2023/06/25 03:51:12;;;;;;;6.57;2.83;;;13.50;99.90;;;;;;5051873;28;20182;-77
2023/06/25 03:53:41;;;;;;;5.00;2.50;;;13.50;99.90;;;;;;5052452;28;20182;-77
2023/06/25 03:56:07;;;;;;;5.10;2.40;;;13.40;99.90;;;;;;5055565;28;20189;-77
2023/06/25 03:58:34;;;;;;;8.20;2.80;;;13.40;99.90;;;;;;5052615;28;20440;-77
2023/06/25 04:00:59;;;;;;;7.20;2.30;;;13.50;99.90;;;;;;5050028;28;20443;-77
2023/06/25 04:03:25;;;;;;;4.87;2.83;;;13.50;99.90;;;;;;5052607;28;20507;-77
2023/06/25 04:05:51;;;;;;;3.97;2.30;;;13.50;99.90;;;;;;5051548;28;20233;-77
2023/06/25 04:08:17;;;;;;;6.50;3.10;;;13.50;99.90;;;;;;5052155;28;20181;-77
2023/06/25 04:10:43;;;;;;;4.60;2.87;;;13.60;99.90;;;;;;5051826;28;20236;-77
2023/06/25 04:13:09;;;;;;;3.83;2.10;;;13.60;99.90;;;;;;5052608;28;20447;-77
2023/06/25 04:15:35;;;;;;;5.27;3.10;;;13.60;99.90;;;;;;5050768;28;20190;-77
2023/06/25 04:18:01;;;;;;;4.37;2.60;;;13.70;99.90;;;;;;5052147;28;20217;-77
2023/06/25 04:20:27;;;;;;;7.40;3.20;;;13.70;99.90;;;;;;5065692;28;20300;-77
2023/06/25 04:22:53;;;;;;;4.07;2.43;;;13.70;99.90;;;;;;5051719;28;20188;-77
2023/06/25 04:25:19;;;;;;;3.10;2.00;;;13.80;99.90;;;;;;5051500;28;20479;-77
2023/06/25 04:27:45;;;;;;;7.30;2.10;;;13.80;99.90;;;;;;5052135;28;20531;-77
2023/06/25 04:30:11;;;;;;;3.90;2.37;;;13.90;99.90;;;;;;5058442;28;20197;-77
2023/06/25 04:32:36;;;;;;;6.07;2.80;;;13.90;99.90;;;;;;5051465;28;20536;-76
2023/06/25 04:35:02;;;;;;;10.73;2.60;;;14.00;99.90;;;;;;5051531;28;20460;-77
2023/06/25 04:37:28;;;;;;;6.40;3.37;;;14.00;99.90;;;;;;5050780;28;20193;-77
2023/06/25 04:39:54;;;;;;;3.90;1.80;;;14.30;99.90;;;;;;5052177;28;20190;-77
2023/06/25 04:42:19;;;;;;;6.77;2.90;;;14.10;99.90;;;;;;5061515;28;20626;-77
2023/06/25 04:44:45;;;;;;;8.13;2.90;;;14.10;99.90;;;;;;5057968;28;20216;-77
2023/06/25 04:47:11;;;;;;;5.47;2.80;;;14.20;99.90;;;;;;5057956;28;20644;-77
2023/06/25 04:49:36;;;;;;;3.33;2.30;;;14.20;99.90;;;;;;5051313;28;20185;-77
2023/06/25 04:52:02;;;;;;;4.60;2.93;;;14.30;99.90;;;;;;5064531;28;20560;-77
2023/06/25 04:54:28;;;;;;;6.03;3.03;;;14.30;99.90;;;;;;5043302;28;20205;-77
2023/06/25 04:56:54;;;;;;;4.60;2.20;;;14.40;99.90;;;;;;5064711;28;20419;-77
2023/06/25 04:59:19;;;;;;;6.50;3.10;;;14.50;99.90;;;;;;5049354;28;20351;-77
2023/06/25 05:01:45;;;;;;;5.37;2.30;;;14.50;99.90;;;;;;5044885;28;20186;-77
2023/06/25 05:04:10;;;;;;;7.73;2.90;;;14.60;99.90;;;;;;5054912;28;20205;-77
2023/06/25 05:06:36;;;;;;;8.10;2.70;;;14.70;99.90;;;;;;5051412;28;20182;-77
2023/06/25 05:09:02;;;;;;;4.17;2.37;;;14.80;99.90;;;;;;5057882;28;20284;-77
2023/06/25 05:11:27;;;;;;;4.30;2.40;;;14.90;99.90;;;;;;5050906;28;20264;-77
2023/06/25 05:13:53;;;;;;;5.93;3.00;;;15.00;99.90;;;;;;5058383;28;20182;-77
2023/06/25 05:16:18;;;;;;;6.33;2.70;;;15.10;99.90;;;;;;5049544;28;20634;-77
2023/06/25 05:18:44;;;;;;;4.43;2.00;;;15.10;99.90;;;;;;5051443;28;20181;-77
2023/06/25 05:21:09;;;;;;;7.40;3.53;;;15.20;99.90;;;;;;5050365;28;20182;-76
2023/06/25 05:23:55;;;;;;;5.13;2.40;;;15.30;99.90;;;;;;5051323;28;20174;-77
2023/06/25 05:26:21;;;;;;;8.43;3.77;;;15.40;99.90;;;;;;5052250;28;20180;-76
2023/06/25 05:28:47;;;;;;;7.10;2.90;;;15.40;99.90;;;;;;5054162;28;20502;-77
2023/06/25 05:31:12;;;;;;;4.77;2.97;;;15.50;99.90;;;;;;5051190;28;20557;-77
2023/06/25 05:33:38;;;;;;;7.80;3.63;;;15.60;99.90;;;;;;5051084;28;20189;-77
2023/06/25 05:36:03;;;;;;;9.27;3.70;;;15.70;99.90;;;;;;5053966;28;20253;-78
2023/06/25 05:38:29;;;;;;;6.87;3.70;;;15.80;99.90;;;;;;5051173;28;20205;-77
2023/06/25 05:40:55;;;;;;;7.20;3.33;;;15.90;99.90;;;;;;5051279;28;20217;-77
2023/06/25 05:43:20;;;;;;;5.77;3.20;;;16.00;99.90;;;;;;5052991;28;20180;-77
2023/06/25 05:45:46;;;;;;;7.97;2.83;;;16.10;99.90;;;;;;5053601;28;20205;-76
2023/06/25 05:48:11;;;;;;;5.07;2.80;;;16.20;99.90;;;;;;5049332;28;20537;-76
2023/06/25 05:50:37;;;;;;;9.10;3.70;;;16.30;99.90;;;;;;5050461;28;20181;-77
2023/06/25 05:53:04;;;;;;;6.23;3.17;;;16.50;99.90;;;;;;5058773;28;20186;-77
2023/06/25 05:55:29;;;;;;;9.00;3.87;;;16.60;99.90;;;;;;5050632;28;20181;-77
2023/06/25 05:57:55;;;;;;;5.10;2.90;;;16.70;99.90;;;;;;5052389;28;20970;-77
2023/06/25 06:00:22;;;;;;;7.73;2.97;;;16.80;99.90;;;;;;5053921;28;20639;-76
2023/06/25 06:02:47;;;;;;;7.50;3.17;;;17.00;99.90;;;;;;5057646;28;20642;-77
2023/06/25 06:05:13;;;;;;;5.00;2.70;;;17.00;99.90;;;;;;5067982;28;20458;-77
2023/06/25 06:07:38;;;;;;;6.70;2.87;;;17.10;99.90;;;;;;5055069;28;20260;-76
2023/06/25 06:10:05;;;;;;;5.83;2.67;;;17.20;99.90;;;;;;5054457;28;20185;-77
2023/06/25 06:12:30;;;;;;;4.77;2.23;;;17.40;99.90;;;;;;5065199;28;20169;-76
2023/06/25 06:14:56;;;;;;;5.27;2.50;;;17.50;99.90;;;;;;5064420;28;20429;-76
2023/06/25 06:17:21;;;;;;;6.50;2.47;;;17.50;99.90;;;;;;5056946;28;20249;-76
2023/06/25 06:19:47;;;;;;;4.53;2.27;;;17.60;99.90;;;;;;5056254;28;20268;-77
2023/06/25 06:22:13;;;;;;;4.40;2.60;;;17.90;99.90;;;;;;5054088;28;20248;-77
2023/06/25 06:24:39;;;;;;;6.50;2.60;;;18.10;99.90;;;;;;5065932;28;20220;-77
2023/06/25 06:27:05;;;;;;;4.13;2.37;;;18.10;99.70;;;;;;5054363;28;20182;-77
2023/06/25 06:29:31;;;;;;;5.60;2.57;;;18.30;99.90;;;;;;5058106;28;20185;-77
2023/06/25 06:31:56;;;;;;;7.83;3.10;;;18.40;99.90;;;;;;5054091;28;20422;-77
2023/06/25 06:34:22;;;;;;;5.40;2.70;;;18.60;99.70;;;;;;5053967;28;20773;-77
2023/06/25 06:36:47;;;;;;;5.83;2.97;;;18.60;99.90;;;;;;5065308;28;20178;-77
2023/06/25 06:39:15;;;;;;;3.80;2.27;;;18.80;98.60;;;;;;5059269;28;20188;-77
2023/06/25 06:41:41;;;;;;;3.70;2.03;;;18.90;97.50;;;;;;5055399;28;20177;-76
2023/06/25 06:44:12;;;;;;;5.83;2.67;;;19.00;97.80;;;;;;5064684;28;20455;-76
2023/06/25 06:46:38;;;;;;;6.10;2.67;;;19.20;98.20;;;;;;5053041;28;20186;-76
2023/06/25 06:49:04;;;;;;;5.00;2.53;;;19.30;97.70;;;;;;5053912;28;20521;-76
2023/06/25 06:51:29;;;;;;;7.47;2.57;;;19.30;97.20;;;;;;5053122;28;20170;-76
2023/06/25 06:53:55;;;;;;;4.23;2.43;;;19.40;97.20;;;;;;5053957;28;20185;-76
2023/06/25 06:56:20;;;;;;;7.50;3.17;;;19.50;96.90;;;;;;5067278;28;20266;-76
2023/06/25 06:58:46;;;;;;;4.40;2.50;;;19.90;96.20;;;;;;5053679;28;20182;-76
2023/06/25 07:01:12;;;;;;;5.50;2.67;;;20.20;95.50;;;;;;5050937;28;20188;-76
2023/06/25 07:03:37;;;;;;;6.20;2.23;;;20.30;95.50;;;;;;5058268;28;20181;-76
2023/06/25 07:06:03;;;;;;;5.33;2.50;;;20.40;94.40;;;;;;5054900;28;20670;-76
2023/06/25 07:08:29;;;;;;;5.87;3.10;;;20.40;94.40;;;;;;5053764;28;20189;-76
2023/06/25 07:10:54;;;;;;;5.37;2.30;;;20.60;94.60;;;;;;5051711;28;20182;-76
2023/06/25 07:13:20;;;;;;;5.87;2.20;;;20.70;93.90;;;;;;5053039;28;20186;-77
2023/06/25 07:15:46;;;;;;;4.40;2.40;;;20.90;94.10;;;;;;5053247;28;20196;-76
2023/06/25 07:18:11;;;;;;;9.93;3.70;;;21.00;93.70;;;;;;5052803;28;20525;-76
2023/06/25 07:20:37;;;;;;;4.00;2.40;;;21.30;91.40;;;;;;5061911;28;20185;-76
2023/06/25 07:23:02;;;;;;;4.80;2.27;;;21.50;91.60;;;;;;5052290;28;20283;-76
2023/06/25 07:25:28;;;;;;;6.73;2.20;;;21.80;91.00;;;;;;5053019;28;20259;-75
2023/06/25 07:27:54;;;;;;;4.97;2.77;;;22.20;90.90;;;;;;5052014;28;20276;-76
2023/06/25 07:30:19;;;;;;;4.83;2.37;;;22.50;90.10;;;;;;5054369;28;20245;-76
2023/06/25 07:32:45;;;;;;;3.53;2.03;;;22.90;85.90;;;;;;5050449;28;20177;-74
2023/06/25 07:35:10;;;;;;;4.37;2.33;;;23.10;87.20;;;;;;5053638;28;20545;-75
2023/06/25 07:37:36;;;;;;;4.43;2.80;;;23.40;85.00;;;;;;5051667;28;20197;-74
2023/06/25 07:40:02;;;;;;;2.97;2.10;;;23.80;84.80;;;;;;5051564;28;20516;-75
2023/06/25 07:42:27;;;;;;;3.53;1.83;;;24.10;85.40;;;;;;5051894;28;20630;-74
2023/06/25 07:44:53;;;;;;;3.90;2.50;;;25.00;82.70;;;;;;5049035;28;20207;-75
2023/06/25 07:47:18;;;;;;;5.50;2.30;;;25.50;79.20;;;;;;5054126;28;20641;-75
2023/06/25 07:49:44;;;;;;;6.40;2.67;;;26.00;77.10;;;;;;5049409;28;20268;-75
2023/06/25 07:52:10;;;;;;;5.20;2.00;;;27.30;75.30;;;;;;5054424;28;20207;-75
2023/06/25 07:54:35;;;;;;;10.02;3.35;;;28.00;71.30;;;;;;5049602;28;20236;-75
2023/06/25 07:57:01;;;;;;;6.13;3.00;;;29.30;68.60;;;;;;5049683;28;20181;-74
2023/06/25 07:59:27;;;;;;;4.68;2.70;;;29.30;68.00;;;;;;5051686;28;20886;-74
2023/06/25 08:01:52;;;;;;;5.63;2.97;;;29.10;66.30;;;;;;5049777;28;20307;-75
2023/06/25 08:04:19;;;;;;;3.45;2.08;;;30.00;66.40;;;;;;5050423;28;20661;-74
2023/06/25 08:06:44;;;;;;;7.70;3.00;;;29.80;65.50;;;;;;5047682;28;20778;-74
2023/06/25 08:09:10;;;;;;;3.63;2.00;;;30.20;64.20;;;;;;5048761;28;20177;-74
2023/06/25 08:11:36;;;;;;;10.57;2.45;;;30.00;62.80;;;;;;5049927;28;20188;-74
2023/06/25 08:14:01;;;;;;;4.38;2.55;;;30.50;62.60;;;;;;5052765;28;20188;-74
2023/06/25 08:16:28;;;;;;;3.95;2.60;;;30.20;59.10;;;;;;5058398;28;20193;-74
2023/06/25 08:18:54;;;;;;;4.95;3.00;;;30.40;59.60;;;;;;5037713;28;21026;-67
2023/06/25 08:21:20;;;;;;;5.03;2.35;;;30.30;59.20;;;;;;5048232;28;20200;-68
2023/06/25 08:23:46;;;;;;;5.60;2.95;;;29.40;59.30;;;;;;5048852;28;20186;-68
2023/06/25 08:26:15;;;;;;;5.18;2.83;;;29.30;59.50;;;;;;5049732;28;20192;-68
2023/06/25 08:28:41;;;;;;;4.88;2.65;;;30.00;58.10;;;;;;5055250;28;20685;-68
2023/06/25 08:31:07;;;;;;;5.20;2.70;;;30.40;57.00;;;;;;5047705;28;20185;-68
2023/06/25 08:33:34;;;;;;;3.70;2.17;;;30.30;57.30;;;;;;5048437;28;20315;-68
2023/06/25 08:35:59;;;;;;;4.28;2.65;;;30.40;57.10;;;;;;5048415;28;20188;-68
2023/06/25 08:38:26;;;;;;;3.08;2.10;;;31.00;54.50;;;;;;5046489;28;20176;-68
2023/06/25 08:40:52;;;;;;;5.93;2.85;;;30.90;55.70;;;;;;5048875;28;20610;-68
2023/06/25 08:43:19;;;;;;;6.60;3.05;;;30.90;55.20;;;;;;5060882;28;20235;-68
2023/06/25 08:45:46;;;;;;;4.30;2.38;;;29.90;54.70;;;;;;5051315;28;20207;-68
2023/06/25 08:48:16;;;;;;;4.65;2.58;;;30.20;56.30;;;;;;5050270;28;20261;-68
2023/06/25 08:50:44;;;;;;;4.47;2.35;;;30.30;55.90;;;;;;5046091;28;20189;-68
2023/06/25 08:53:10;;;;;;;4.68;1.77;;;30.20;55.60;;;;;;5048318;28;20200;-68
2023/06/25 08:55:37;;;;;;;6.38;3.25;;;30.10;56.10;;;;;;5047528;28;20641;-68
2023/06/25 08:58:02;;;;;;;6.60;2.47;;;29.80;54.70;;;;;;5048273;28;20717;-68
2023/06/25 09:00:28;;;;;;;5.03;2.95;;;29.60;55.40;;;;;;5051238;28;20272;-68
2023/06/25 09:02:54;;;;;;;4.28;2.55;;;29.50;55.00;;;;;;5054371;28;20273;-70
2023/06/25 09:05:25;;;;;;;5.97;2.80;;;28.90;54.90;;;;;;5049054;28;20231;-67
2023/06/25 09:07:51;;;;;;;4.82;2.13;;;28.90;55.60;;;;;;5054316;28;20651;-68
2023/06/25 09:10:18;;;;;;;7.18;2.33;;;29.00;56.40;;;;;;5051675;28;20181;-68
2023/06/25 09:12:48;;;;;;;6.25;3.42;;;29.60;55.60;;;;;;5049838;28;20177;-67
2023/06/25 09:15:22;;;;;;;6.53;2.95;;;29.60;55.40;;;;;;5049583;28;20675;-68
2023/06/25 09:17:48;;;;;;;5.50;2.92;;;29.50;56.10;;;;;;5046061;28;20172;-68
2023/06/25 09:20:14;;;;;;;3.95;2.72;;;29.50;56.10;;;;;;5053953;28;20271;-68
2023/06/25 09:22:53;;;;;;;4.65;2.60;;;29.80;54.40;;;;;;5043680;28;20686;-68
2023/06/25 09:25:27;;;;;;;4.07;2.55;;;29.30;53.80;;;;;;5049664;28;20789;-68
2023/06/25 09:27:53;;;;;;;6.97;2.50;;;29.30;55.10;;;;;;5048040;28;20181;-68
2023/06/25 09:30:22;;;;;;;5.35;2.63;;;29.50;55.30;;;;;;5048294;28;20188;-68
2023/06/25 09:32:52;;;;;;;4.65;2.70;;;29.50;54.80;;;;;;5042683;28;20189;-68
2023/06/25 09:35:19;;;;;;;6.50;2.90;;;29.90;53.70;;;;;;5048940;28;20888;-68
2023/06/25 09:37:45;;;;;;;5.00;2.75;;;30.00;54.70;;;;;;5054255;28;20425;-68
2023/06/25 09:40:11;;;;;;;4.78;2.80;;;29.70;56.00;;;;;;5063581;28;20188;-76
2023/06/25 09:42:39;;;;;;;5.88;2.85;;;29.90;54.90;;;;;;5047418;28;20189;-75
2023/06/25 09:45:08;;;;;;;4.97;2.47;;;29.60;56.70;;;;;;5047677;28;20201;-76
2023/06/25 09:47:36;;;;;;;3.85;2.50;;;29.20;56.30;;;;;;5047738;28;20181;-76
2023/06/25 09:50:07;;;;;;;7.90;2.75;;;29.20;56.40;;;;;;5048109;28;20264;-76
2023/06/25 09:52:32;;;;;;;6.22;2.65;;;29.30;55.20;;;;;;5048227;28;20268;-76
2023/06/25 09:54:58;;;;;;;6.35;2.60;;;29.60;54.90;;;;;;5062066;28;20574;-75
2023/06/25 09:57:26;;;;;;;8.60;2.83;;;29.50;55.10;;;;;;5049896;28;20182;-74
2023/06/25 09:59:51;;;;;;;4.85;2.22;;;29.50;55.90;;;;;;5050141;28;20189;-74
2023/06/25 10:02:18;;;;;;;4.43;2.90;;;28.90;55.70;;;;;;5050354;28;20189;-74
2023/06/25 10:04:44;;;;;;;5.10;2.17;;;28.50;55.90;;;;;;5050845;28;20646;-75
2023/06/25 10:07:10;;;;;;;4.55;2.38;;;29.00;57.50;;;;;;5042032;28;20192;-75
2023/06/25 10:09:36;;;;;;;5.00;2.95;;;29.40;55.40;;;;;;5051350;28;20181;-75
2023/06/25 10:12:03;;;;;;;6.13;2.95;;;30.00;53.90;;;;;;5062420;28;20264;-75
2023/06/25 10:14:38;;;;;;;4.43;3.05;;;30.20;53.30;;;;;;5051728;28;20639;-75
2023/06/25 10:17:05;;;;;;;6.07;3.00;;;29.50;54.20;;;;;;5070061;28;20184;-75
2023/06/25 10:19:30;;;;;;;5.85;3.45;;;30.00;53.70;;;;;;5050472;28;20189;-75
2023/06/25 10:22:07;;;;;;;4.60;2.95;;;29.50;54.30;;;;;;5049030;28;20188;-75
2023/06/25 10:24:40;;;;;;;5.03;3.03;;;29.30;55.00;;;;;;5067463;28;20208;-75
2023/06/25 10:27:06;;;;;;;4.63;3.00;;;29.30;56.70;;;;;;5059160;28;20200;-75
2023/06/25 10:29:42;;;;;;;4.57;2.63;;;29.50;55.40;;;;;;5050534;28;20237;-75
2023/06/25 10:32:07;;;;;;;4.20;2.22;;;29.50;54.60;;;;;;5054227;28;20557;-74
2023/06/25 10:34:37;;;;;;;4.82;2.60;;;29.20;55.20;;;;;;5055817;28;20648;-74
2023/06/25 10:37:13;;;;;;;6.47;3.22;;;28.50;56.10;;;;;;5056107;28;20192;-74
2023/06/25 10:39:41;;;;;;;7.88;3.70;;;28.50;55.30;;;;;;5049356;28;20207;-74
2023/06/25 10:42:07;;;;;;;6.13;3.53;;;28.60;55.90;;;;;;5052529;28;20185;-74
2023/06/25 10:44:34;;;;;;;4.20;2.72;;;28.40;56.50;;;;;;5051271;28;20664;-74
2023/06/25 10:47:10;;;;;;;6.78;2.65;;;28.30;55.80;;;;;;5052693;28;20181;-75
2023/06/25 10:49:36;;;;;;;5.10;2.57;;;28.40;56.50;;;;;;5055383;28;20177;-74
2023/06/25 10:52:04;;;;;;;5.90;2.80;;;28.40;55.50;;;;;;5055327;28;20181;-74
2023/06/25 10:54:33;;;;;;;5.80;2.77;;;28.30;53.80;;;;;;5056252;28;20649;-74
2023/06/25 10:57:09;;;;;;;5.27;2.47;;;28.50;55.20;;;;;;5054107;28;20189;-74
2023/06/25 10:59:35;;;;;;;7.53;2.90;;;28.20;53.80;;;;;;5051007;28;20181;-74
2023/06/25 11:02:15;;;;;;;4.40;2.70;;;28.20;55.00;;;;;;5052590;28;20568;-74
2023/06/25 11:04:42;;;;;;;8.17;2.53;;;28.40;54.10;;;;;;5058399;28;20201;-74
2023/06/25 11:07:11;;;;;;;5.07;2.10;;;28.20;55.20;;;;;;5054883;28;20181;-74
2023/06/25 11:09:38;;;;;;;3.20;1.90;;;28.20;54.20;;;;;;5046830;28;20186;-73
2023/06/25 11:12:05;;;;;;;5.80;3.40;;;27.80;55.40;;;;;;5054855;28;20173;-73
2023/06/25 11:14:31;;;;;;;3.40;2.17;;;28.00;55.20;;;;;;5062806;28;20197;-74
2023/06/25 11:16:57;;;;;;;5.33;2.23;;;28.50;54.30;;;;;;5054516;28;20189;-73
2023/06/25 11:19:25;;;;;;;3.87;2.40;;;28.10;52.50;;;;;;5053825;28;20242;-74
2023/06/25 11:21:51;;;;;;;6.37;2.90;;;28.30;52.80;;;;;;5052712;28;20177;-74
2023/06/25 11:24:16;;;;;;;5.63;2.70;;;28.50;53.40;;;;;;5053563;28;20221;-73
2023/06/25 11:26:43;;;;;;;4.63;2.53;;;28.40;52.40;;;;;;5066680;28;20192;-74
2023/06/25 11:29:10;;;;;;;5.20;2.70;;;28.60;51.60;;;;;;5058850;28;20181;-74
2023/06/25 11:31:52;;;;;;;5.50;3.00;;;28.50;53.90;;;;;;5056704;28;20239;-73
2023/06/25 11:34:25;;;;;;;3.90;2.73;;;28.80;52.50;;;;;;5053131;28;20602;-73
2023/06/25 11:36:51;;;;;;;6.20;2.90;;;28.70;52.70;;;;;;5053842;28;20706;-74
2023/06/25 11:39:17;;;;;;;6.90;3.40;;;28.90;51.80;;;;;;5053243;28;20211;-74
2023/06/25 11:41:44;;;;;;;5.85;2.65;;;28.90;51.80;;;;;;5053064;28;20197;-74
2023/06/25 11:44:17;;;;;;;5.60;1.92;;;28.90;52.80;;;;;;5052150;28;20180;-74
2023/06/25 11:46:49;;;;;;;5.07;2.67;;;28.70;51.60;;;;;;5052410;28;20193;-74
2023/06/25 11:49:15;;;;;;;5.22;3.25;;;28.90;51.20;;;;;;5052105;28;20197;-74
2023/06/25 11:51:41;;;;;;;4.20;2.33;;;29.20;49.80;;;;;;5050946;28;20637;-74
2023/06/25 11:54:06;;;;;;;5.65;2.30;;;29.00;49.40;;;;;;5051522;28;20724;-74
2023/06/25 11:56:32;;;;;;;4.45;2.15;;;29.00;50.10;;;;;;5039888;28;20182;-74
2023/06/25 11:58:57;;;;;;;3.95;2.17;;;29.00;51.00;;;;;;5065824;28;20718;-73
2023/06/25 12:01:25;;;;;;;5.53;2.90;;;29.10;49.90;;;;;;5052097;28;20188;-74
2023/06/25 12:03:50;;;;;;;7.45;3.42;;;28.90;50.10;;;;;;5065750;28;20189;-70
2023/06/25 12:06:16;;;;;;;5.28;2.60;;;28.90;49.80;;;;;;5058638;28;20282;-66
2023/06/25 12:08:41;;;;;;;7.65;3.05;;;28.90;51.80;;;;;;5047233;28;20296;-66
2023/06/25 12:11:07;;;;;;;4.88;2.80;;;29.20;50.30;;;;;;5050740;28;20182;-69
2023/06/25 12:13:32;;;;;;;5.05;2.50;;;29.30;48.60;;;;;;5051957;28;20998;-69
2023/06/25 12:15:58;;;;;;;3.97;2.78;;;29.40;48.80;;;;;;5051753;28;20563;-69
2023/06/25 12:18:24;;;;;;;8.02;2.97;;;29.40;48.60;;;;;;5052150;28;20199;-68
2023/06/25 12:20:49;;;;;;;7.10;3.25;;;29.50;48.30;;;;;;5065249;28;20531;-69
2023/06/25 12:23:15;;;;;;;3.50;2.08;;;29.60;47.30;;;;;;5051557;28;20193;-69
2023/06/25 12:25:40;;;;;;;5.43;2.58;;;29.30;49.80;;;;;;5051972;28;20833;-68
2023/06/25 12:28:06;;;;;;;8.80;3.58;;;29.10;50.20;;;;;;5064084;28;20180;-69
2023/06/25 12:30:31;;;;;;;11.63;4.03;;;29.00;50.30;;;;;;5054625;28;20177;-69
2023/06/25 12:32:57;;;;;;;7.88;4.00;;;29.20;49.00;;;;;;5049070;28;20181;-69
2023/06/25 12:35:23;;;;;;;9.48;2.95;;;29.00;50.30;;;;;;5051619;28;20220;-69
2023/06/25 12:37:49;;;;;;;6.88;3.00;;;29.10;49.30;;;;;;5051020;28;20234;-69
2023/06/25 12:40:15;;;;;;;5.57;3.33;;;29.30;48.20;;;;;;5050836;28;20197;-69
2023/06/25 12:42:40;;;;;;;9.40;3.33;;;29.30;48.50;;;;;;5050038;28;20204;-70